Norwegian Epic — C6XP7 — position and weather

sailwx.info

Track history (hours):
 
Tides and Currents Weather Stations Pressure Air Temp Water Temp Dewpoint Dewpoint Depression Visibility Wind Speed Wind Dir Waves Ship Positions

Norwegian Epic

Last reported at 2019-Sep-21 11:23 UTC. Time now 2019-Sep-21 11:35 UTC.
Position N 39°33' E 002°38'.

Length 329 m; draft 9.2 m.

Type: Passenger vessel. MMSI: 311018500.

Date/timePositionNaut miles runAvg speedWind from/ knotsBaromVisibWave heightAir tempDewpointWater temp
2019-Sep-21 11:23N 39°33' E 002°38'0 0.0
2019-Sep-21 10:59N 39°33' E 002°38'0 0.0
2019-Sep-21 10:30N 39°33' E 002°38'2 3.2
2019-Sep-21 10:00N 39°32' E 002°38'713.3
2019-Sep-21 09:30N 39°26' E 002°33'2713.0
2019-Sep-21 07:26N 39°53' E 002°37'1520.3
2019-Sep-21 06:41N 40°05' E 002°50'420.2
2019-Sep-21 06:30N 40°07' E 002°53'713.9
2019-Sep-21 06:00N 40°12' E 003°00'10621.1 120 / 251014.0 5.4 24.021.026.0
2019-Sep-21 01:00N 41°24' E 004°42'6320.9 140 / 231017.010.8 22.0 25.0
2019-Sep-20 22:00N 42°12' E 005°36'6419.3 090 / 271020.010.8 22.0
2019-Sep-20 18:41N 42°60' E 006°33'420.7
2019-Sep-20 18:30N 43°03' E 006°37'1020.7
2019-Sep-20 18:00N 43°11' E 006°45'1020.3
2019-Sep-20 17:30N 43°20' E 006°52'1019.2
2019-Sep-20 17:00N 43°28' E 006°58'5 9.0
2019-Sep-20 16:30N 43°32' E 007°00'0 0.6
2019-Sep-20 15:58N 43°32' E 007°01'0 0.1
2019-Sep-20 15:28N 43°32' E 007°00'0 0.0
2019-Sep-20 14:58N 43°32' E 007°00'0 0.0
2019-Sep-20 14:29N 43°32' E 007°00'0 0.0
2019-Sep-20 13:59N 43°32' E 007°00'0 0.0
2019-Sep-20 13:29N 43°32' E 007°00'0 0.0
2019-Sep-20 13:00N 43°32' E 007°00'0 0.0
2019-Sep-20 12:30N 43°32' E 007°00'0 0.0
2019-Sep-20 12:00N 43°32' E 007°00'0 0.0
2019-Sep-20 11:28N 43°32' E 007°00'0 0.0
2019-Sep-20 10:58N 43°32' E 007°00'0 0.0
2019-Sep-20 10:28N 43°32' E 007°00'0 0.0
2019-Sep-20 09:59N 43°32' E 007°00'0 0.0
2019-Sep-20 09:29N 43°32' E 007°00'0 0.0
2019-Sep-20 08:59N 43°32' E 007°00'0 0.1
2019-Sep-20 08:30N 43°32' E 007°00'0 0.0
2019-Sep-20 08:00N 43°32' E 007°00'0 0.1
2019-Sep-20 07:30N 43°32' E 007°00'0 0.1
2019-Sep-20 06:58N 43°32' E 007°01'0 0.1
2019-Sep-20 06:25N 43°32' E 007°01'0 0.0
2019-Sep-20 05:58N 43°32' E 007°01'0 0.1
2019-Sep-20 05:30N 43°32' E 007°01'1 1.0
2019-Sep-20 05:00N 43°31' E 007°01'4 8.2
2019-Sep-20 04:30N 43°28' E 007°04'815.9
2019-Sep-20 04:00N 43°28' E 007°15'612.9
2019-Sep-20 03:30N 43°28' E 007°24'713.5
2019-Sep-20 03:00N 43°29' E 007°33'713.8
2019-Sep-20 02:30N 43°29' E 007°42'713.7
2019-Sep-20 02:00N 43°29' E 007°52'713.2
2019-Sep-20 01:30N 43°29' E 008°01'612.6
2019-Sep-20 01:00N 43°29' E 008°09'6381.5
2019-Sep-20 01:00N 43°30' E 008°18'0 1.0 080 / 151020.010.8 22.0 26.0
2019-Sep-20 00:30N 43°30' E 008°18'612.6
2019-Sep-20 00:00N 43°30' E 008°27'612.7
2019-Sep-19 23:30N 43°31' E 008°35'612.5
2019-Sep-19 23:00N 43°32' E 008°44'612.5
2019-Sep-19 22:30N 43°33' E 008°52'612.0
2019-Sep-19 22:00N 43°30' E 008°60'5286.2
2019-Sep-19 22:00N 43°30' E 009°06'2 3.6 090 / 171020.010.8 25.0
2019-Sep-19 21:30N 43°31' E 009°08'612.5
2019-Sep-19 21:00N 43°31' E 009°17'612.6
2019-Sep-19 20:30N 43°31' E 009°25'612.8
2019-Sep-19 20:00N 43°31' E 009°34'612.9
2019-Sep-19 19:30N 43°31' E 009°43'612.9
2019-Sep-19 19:00N 43°31' E 009°52'612.7
2019-Sep-19 18:30N 43°31' E 010°01'612.4
2019-Sep-19 18:00N 43°30' E 010°09'611.6
2019-Sep-19 17:30N 43°32' E 010°17'1 2.5
2019-Sep-19 16:58N 43°33' E 010°18'0 0.0
2019-Sep-19 16:28N 43°33' E 010°18'0 0.0
2019-Sep-19 15:58N 43°33' E 010°18'0 0.0
2019-Sep-19 15:29N 43°33' E 010°18'0 0.0
2019-Sep-19 14:59N 43°33' E 010°18'0 0.0
2019-Sep-19 14:29N 43°33' E 010°18'0 0.0
2019-Sep-19 14:00N 43°33' E 010°18'0 0.0
2019-Sep-19 13:30N 43°33' E 010°18'0 0.0
2019-Sep-19 13:00N 43°33' E 010°18'0 0.0
2019-Sep-19 12:28N 43°33' E 010°18'0 0.0
2019-Sep-19 11:58N 43°33' E 010°18'0 0.0
2019-Sep-19 11:28N 43°33' E 010°18'0 0.0
2019-Sep-19 10:59N 43°33' E 010°18'0 0.0
2019-Sep-19 10:29N 43°33' E 010°18'0 0.0
2019-Sep-19 09:59N 43°33' E 010°18'0 0.0
2019-Sep-19 09:27N 43°33' E 010°18'0 0.0
2019-Sep-19 09:00N 43°33' E 010°18'0 0.0
2019-Sep-19 08:30N 43°33' E 010°18'0 0.0
2019-Sep-19 07:55N 43°33' E 010°18'0 0.0
2019-Sep-19 07:28N 43°33' E 010°18'0 0.0
2019-Sep-19 06:58N 43°33' E 010°18'0 0.0
2019-Sep-19 06:29N 43°33' E 010°18'0 0.0
2019-Sep-19 05:59N 43°33' E 010°18'0 0.0
2019-Sep-19 05:29N 43°33' E 010°18'0 0.0
2019-Sep-19 05:00N 43°33' E 010°18'1 1.5
2019-Sep-19 04:30N 43°33' E 010°17'4 8.3
2019-Sep-19 04:00N 43°30' E 010°14'612.7
2019-Sep-19 03:30N 43°24' E 010°11'612.7
2019-Sep-19 03:00N 43°17' E 010°09'612.9
2019-Sep-19 02:30N 43°11' E 010°06'612.9
2019-Sep-19 02:00N 43°05' E 010°04'714.6
2019-Sep-19 01:30N 42°58' E 010°02'815.6
2019-Sep-19 01:00N 42°50' E 009°60'9772.1
2019-Sep-19 01:00N 42°42' E 009°54'3 3.9 330 / 71015.010.8 23.0 26.0
2019-Sep-19 00:19N 42°40' E 009°56'716.0
2019-Sep-18 23:53N 42°33' E 009°54'1615.7
2019-Sep-18 22:54N 42°18' E 009°58'615.3
2019-Sep-18 22:30N 42°14' E 010°04'815.9
2019-Sep-18 22:00N 42°11' E 010°14'12511885.3
2019-Sep-18 22:00N 40°06' E 010°18'122220.0 180 / 121016.010.8 25.0
2019-Sep-18 21:26N 42°08' E 010°25'716.1
2019-Sep-18 21:00N 42°06' E 010°34'59 3.0
2019-Sep-18 01:33N 41°44' E 011°48'2214.2
2019-Sep-18 00:00N 41°24' E 012°00'2523.5 230 / 61016.010.8 24.0 26.0
2019-Sep-17 22:57N 41°06' E 012°22'2324.5
2019-Sep-17 22:00N 40°48' E 012°42'511.3 300 / 61016.010.8 24.0
2019-Sep-17 21:33N 40°49' E 012°48'218.5
2019-Sep-17 21:28N 40°49' E 012°50'918.4
2019-Sep-17 21:00N 40°45' E 013°00'918.2
2019-Sep-17 20:30N 40°42' E 013°12'918.3
2019-Sep-17 20:00N 40°41' E 013°24'918.4
2019-Sep-17 19:30N 40°39' E 013°36'918.5
2019-Sep-17 19:00N 40°38' E 013°48'918.3
2019-Sep-17 18:30N 40°38' E 013°60'917.5
2019-Sep-17 18:00N 40°43' E 014°10'816.0
2019-Sep-17 17:30N 40°49' E 014°17'2 3.3
2019-Sep-17 16:59N 40°50' E 014°16'0 0.0
2019-Sep-17 16:26N 40°50' E 014°16'0 0.0
2019-Sep-17 15:59N 40°50' E 014°16'0 0.0
2019-Sep-17 15:24N 40°50' E 014°16'0 0.0
2019-Sep-17 14:57N 40°50' E 014°16'0 0.0
2019-Sep-17 14:30N 40°50' E 014°16'0 0.0
2019-Sep-17 13:55N 40°50' E 014°16'0 0.0
2019-Sep-17 13:28N 40°50' E 014°16'0 0.0
2019-Sep-17 12:52N 40°50' E 014°16'0 0.0
2019-Sep-17 12:29N 40°50' E 014°16'0 0.0
2019-Sep-17 11:53N 40°50' E 014°16'0 0.0
2019-Sep-17 11:26N 40°50' E 014°16'0 0.0
2019-Sep-17 11:00N 40°50' E 014°16'0 0.0
2019-Sep-17 10:24N 40°50' E 014°16'0 0.0
2019-Sep-17 10:00N 40°50' E 014°16'0 0.0
2019-Sep-17 09:25N 40°50' E 014°16'0 0.0
2019-Sep-17 08:58N 40°50' E 014°16'0 0.0
2019-Sep-17 08:22N 40°50' E 014°16'0 0.0
2019-Sep-17 07:56N 40°50' E 014°16'0 0.0
2019-Sep-17 07:29N 40°50' E 014°16'0 0.0
2019-Sep-17 06:53N 40°50' E 014°16'0 0.0
2019-Sep-17 06:30N 40°50' E 014°16'0 0.0
2019-Sep-17 06:00N 40°50' E 014°16'0 0.0
2019-Sep-17 05:27N 40°50' E 014°16'0 0.0
2019-Sep-17 05:01N 40°50' E 014°16'0 0.3
2019-Sep-17 04:30N 40°50' E 014°16'2 4.6
2019-Sep-17 04:00N 40°48' E 014°17'612.8
2019-Sep-17 03:30N 40°44' E 014°11'612.5
2019-Sep-17 03:00N 40°40' E 014°05'612.6
2019-Sep-17 02:30N 40°38' E 013°57'713.1
2019-Sep-17 02:00N 40°39' E 013°48'713.1
2019-Sep-17 01:31N 40°39' E 013°40'713.3
2019-Sep-17 01:01N 40°39' E 013°31'10627.1
2019-Sep-17 01:00N 40°36' E 013°18'5 7.0 330 / 41020.0 5.4 24.0 26.0
2019-Sep-17 00:19N 40°41' E 013°17'1016.6
2019-Sep-16 23:43N 40°42' E 013°04'416.7
2019-Sep-16 23:30N 40°42' E 012°59'816.8
2019-Sep-16 23:01N 40°44' E 012°48'916.5
2019-Sep-16 22:28N 40°45' E 012°37'816.4
2019-Sep-16 22:01N 40°47' E 012°27'1216.6
2019-Sep-16 21:19N 40°50' E 012°12'516.5
2019-Sep-16 21:00N 40°51' E 012°06'3173.2
2019-Sep-16 21:00N 40°48' E 012°06'919.6 090 / 21019.010.8 24.0
2019-Sep-16 20:30N 40°53' E 011°55'816.2
2019-Sep-16 20:00N 40°55' E 011°45'815.6
2019-Sep-16 19:30N 40°57' E 011°35'815.5
2019-Sep-16 19:00N 40°59' E 011°25'915.3
2019-Sep-16 18:25N 41°01' E 011°13'1023.6
2019-Sep-16 18:00N 41°00' E 011°00'446.7 140 / 151018.010.8 23.019.926.0
2019-Sep-16 17:55N 41°03' E 011°02'1317.1
2019-Sep-16 17:10N 41°06' E 010°46'317.2
2019-Sep-16 16:59N 41°07' E 010°42'1416.9
2019-Sep-16 16:10N 41°11' E 010°24'316.6
2019-Sep-16 16:00N 41°11' E 010°21'816.4
2019-Sep-16 15:30N 41°13' E 010°10'816.6
2019-Sep-16 15:00N 41°15' E 009°60'1116.9
2019-Sep-16 14:22N 41°18' E 009°46'616.9
2019-Sep-16 14:00N 41°20' E 009°38'1514.7
2019-Sep-16 12:59N 41°19' E 009°18'815.1
2019-Sep-16 12:27N 41°17' E 009°07'715.9
2019-Sep-16 12:00N 41°18' E 008°58'815.9
2019-Sep-16 11:30N 41°17' E 008°47'815.9
2019-Sep-16 11:01N 41°17' E 008°37'816.4
2019-Sep-16 10:30N 41°17' E 008°26'816.7
2019-Sep-16 10:00N 41°17' E 008°15'916.6
2019-Sep-16 09:29N 41°17' E 008°03'816.4
2019-Sep-16 09:00N 41°17' E 007°53'816.2
2019-Sep-16 08:31N 41°17' E 007°42'816.1
2019-Sep-16 08:00N 41°17' E 007°31'816.0
2019-Sep-16 07:28N 41°17' E 007°20'1016.1
2019-Sep-16 06:51N 41°17' E 007°07'615.8
2019-Sep-16 06:30N 41°17' E 006°59'816.5
2019-Sep-16 06:00N 41°17' E 006°48'10631.9
2019-Sep-16 06:00N 41°12' E 006°36'5 9.9 050 / 111020.010.8 22.022.026.0
2019-Sep-16 05:30N 41°17' E 006°37'816.6
2019-Sep-16 05:00N 41°17' E 006°26'816.7
2019-Sep-16 04:31N 41°17' E 006°15'816.9
2019-Sep-16 04:00N 41°17' E 006°04'917.1
2019-Sep-16 03:30N 41°16' E 005°52'816.8
2019-Sep-16 03:00N 41°16' E 005°41'1016.9
2019-Sep-16 02:24N 41°16' E 005°28'716.6
2019-Sep-16 02:00N 41°16' E 005°19'2813.9
2019-Sep-16 00:00N 41°12' E 004°42'3420.0 320 / 71021.010.8 23.0 26.0
2019-Sep-15 22:18N 41°16' E 003°58'517.3
2019-Sep-15 22:01N 41°16' E 003°51'816.9
2019-Sep-15 21:30N 41°16' E 003°39'816.6
2019-Sep-15 21:00N 41°16' E 003°28'815.8
2019-Sep-15 20:30N 41°16' E 003°18'714.8
2019-Sep-15 20:00N 41°16' E 003°08'815.1
2019-Sep-15 19:30N 41°16' E 002°58'815.4
2019-Sep-15 19:00N 41°15' E 002°48'815.4
2019-Sep-15 18:30N 41°15' E 002°38'815.2
2019-Sep-15 18:00N 41°15' E 002°28'815.3
2019-Sep-15 17:30N 41°15' E 002°17'612.0
2019-Sep-15 17:01N 41°18' E 002°10'3 6.6
2019-Sep-15 16:31N 41°22' E 002°11'0 0.7
2019-Sep-15 15:59N 41°22' E 002°11'0 0.0
2019-Sep-15 15:29N 41°22' E 002°11'0 0.0
2019-Sep-15 14:59N 41°22' E 002°11'0 0.0
2019-Sep-15 14:30N 41°22' E 002°11'0 0.0
2019-Sep-15 14:00N 41°22' E 002°11'0 0.0
2019-Sep-15 13:30N 41°22' E 002°11'0 0.0
2019-Sep-15 12:58N 41°22' E 002°11'0 0.0
2019-Sep-15 12:28N 41°22' E 002°11'0 0.0
2019-Sep-15 11:58N 41°22' E 002°11'0 0.0
2019-Sep-15 11:29N 41°22' E 002°11'0 0.0
2019-Sep-15 10:59N 41°22' E 002°11'0 0.0
2019-Sep-15 10:29N 41°22' E 002°11'0 0.0
2019-Sep-15 10:00N 41°22' E 002°11'0 0.0
2019-Sep-15 09:30N 41°22' E 002°11'0 0.0
2019-Sep-15 09:00N 41°22' E 002°11'0 0.0
2019-Sep-15 08:28N 41°22' E 002°11'0 0.0
2019-Sep-15 07:58N 41°22' E 002°11'0 0.0
2019-Sep-15 07:28N 41°22' E 002°11'0 0.0
2019-Sep-15 06:59N 41°22' E 002°11'0 0.0
2019-Sep-15 06:29N 41°22' E 002°11'0 0.0
2019-Sep-15 05:59N 41°22' E 002°11'0 0.0
2019-Sep-15 05:29N 41°22' E 002°11'0 0.0
2019-Sep-15 05:00N 41°22' E 002°11'0 0.0
2019-Sep-15 04:30N 41°22' E 002°11'0 0.0
2019-Sep-15 04:00N 41°22' E 002°11'0 0.0
2019-Sep-15 03:28N 41°22' E 002°11'0 0.0
2019-Sep-15 02:58N 41°22' E 002°11'1 1.6
2019-Sep-15 02:30N 41°21' E 002°10'3 6.2
2019-Sep-15 02:00N 41°18' E 002°11'612.9
2019-Sep-15 01:31N 41°12' E 002°11'815.9
2019-Sep-15 01:00N 41°04' E 002°11'815.9
2019-Sep-15 00:30N 40°56' E 002°12'917.4
2019-Sep-15 00:00N 40°47' E 002°12'1339.0
2019-Sep-15 00:00N 40°48' E 002°12'1020.9 050 / 351021.010.8 23.0 26.0
2019-Sep-14 23:30N 40°38' E 002°12'1019.1
2019-Sep-14 23:00N 40°28' E 002°12'918.7
2019-Sep-14 22:31N 40°19' E 002°12'816.5
2019-Sep-14 22:01N 40°11' E 002°12'816.2
2019-Sep-14 21:30N 40°03' E 002°12'3 5.2
2019-Sep-14 21:00N 40°00' E 002°12'1037.7 080 / 301020.010.8 24.0
2019-Sep-14 20:43N 39°50' E 002°13'2115.8
2019-Sep-14 19:24N 39°30' E 002°22'716.9
2019-Sep-14 19:00N 39°26' E 002°29'815.2
2019-Sep-14 18:30N 39°30' E 002°37'3 6.8
2019-Sep-14 18:00N 39°33' E 002°38'0 0.0
2019-Sep-14 17:28N 39°33' E 002°38'0 0.0
2019-Sep-14 16:58N 39°33' E 002°38'0 0.0
2019-Sep-14 16:28N 39°33' E 002°38'0 0.0
2019-Sep-14 15:59N 39°33' E 002°38'0 0.0
2019-Sep-14 15:29N 39°33' E 002°38'0 0.0
2019-Sep-14 14:53N 39°33' E 002°38'0 0.0
2019-Sep-14 14:30N 39°33' E 002°38'0 0.0
2019-Sep-14 14:00N 39°33' E 002°38'0 0.0
2019-Sep-14 13:30N 39°33' E 002°38'0 0.0
2019-Sep-14 12:58N 39°33' E 002°38'0 0.0
2019-Sep-14 12:28N 39°33' E 002°38'0 0.0
2019-Sep-14 11:58N 39°33' E 002°38'0 0.0
2019-Sep-14 11:23N 39°33' E 002°38'0 0.0
2019-Sep-14 10:56N 39°33' E 002°38'0 0.0
2019-Sep-14 10:30N 39°33' E 002°38'1 2.9
2019-Sep-14 10:00N 39°32' E 002°38'611.5
2019-Sep-14 09:30N 39°27' E 002°34'815.8
2019-Sep-14 09:00N 39°28' E 002°24'2615.4
2019-Sep-14 07:19N 39°52' E 002°35'1621.1
2019-Sep-14 06:34N 40°04' E 002°49'120.9
2019-Sep-14 06:30N 40°05' E 002°50'1019.8
2019-Sep-14 06:00N 40°12' E 003°00'1521.7 090 / 201024.0 5.4 23.018.224.0
2019-Sep-14 05:18N 40°23' E 003°13'621.4
2019-Sep-14 05:01N 40°28' E 003°19'1121.7
2019-Sep-14 04:31N 40°36' E 003°29'1121.9
2019-Sep-14 04:01N 40°43' E 003°39'1821.9
2019-Sep-14 03:10N 40°56' E 003°56'2821.7
2019-Sep-14 01:53N 41°17' E 004°21'820.6
2019-Sep-14 01:30N 41°22' E 004°29'1020.7
2019-Sep-14 01:00N 41°30' E 004°37'1021.0
2019-Sep-14 00:31N 41°39' E 004°45'1121.6
2019-Sep-14 00:00N 41°48' E 004°53'189.9
2019-Sep-14 00:00N 41°48' E 004°54'1020.1 050 / 141027.010.8 22.0 26.0
2019-Sep-13 23:29N 41°53' E 005°06'1121.0
2019-Sep-13 22:57N 41°60' E 005°18'2626.5
2019-Sep-13 22:00N 42°18' E 005°42'5619.7 050 / 101026.010.8 23.0
2019-Sep-13 19:10N 42°59' E 006°33'321.4
2019-Sep-13 19:01N 43°01' E 006°36'1121.2
2019-Sep-13 18:31N 43°10' E 006°44'1020.8
2019-Sep-13 18:01N 43°20' E 006°50'917.6
2019-Sep-13 17:31N 43°27' E 006°57'611.4
2019-Sep-13 17:00N 43°32' E 007°00'0 0.2
2019-Sep-13 16:30N 43°32' E 007°01'0 0.0
2019-Sep-13 16:00N 43°32' E 007°01'0 0.2
2019-Sep-13 15:28N 43°32' E 007°00'0 0.0
2019-Sep-13 14:58N 43°32' E 007°00'0 0.0
2019-Sep-13 14:25N 43°32' E 007°00'0 0.0
2019-Sep-13 13:59N 43°32' E 007°00'0 0.0
2019-Sep-13 13:29N 43°32' E 007°00'0 0.0
2019-Sep-13 12:59N 43°32' E 007°00'0 0.0
2019-Sep-13 12:30N 43°32' E 007°00'0 0.0
2019-Sep-13 12:00N 43°32' E 007°00'0 0.0
2019-Sep-13 11:30N 43°32' E 007°00'0 0.0
2019-Sep-13 10:58N 43°32' E 007°00'0 0.0
2019-Sep-13 10:25N 43°32' E 007°00'0 0.0
2019-Sep-13 09:58N 43°32' E 007°00'0 0.0
2019-Sep-13 09:29N 43°32' E 007°00'0 0.1
2019-Sep-13 08:59N 43°32' E 007°01'0 0.1
2019-Sep-13 08:29N 43°32' E 007°01'0 0.0
2019-Sep-13 08:00N 43°32' E 007°01'0 0.0
2019-Sep-13 07:30N 43°32' E 007°00'0 0.0
2019-Sep-13 07:00N 43°32' E 007°01'0 0.0
2019-Sep-13 06:31N 43°32' E 007°01'0 0.0
2019-Sep-13 05:58N 43°32' E 007°01'0 0.1
2019-Sep-13 05:28N 43°32' E 007°00'0 1.0
2019-Sep-13 05:00N 43°32' E 007°01'4 7.6
2019-Sep-13 04:31N 43°28' E 007°03'815.7
2019-Sep-13 04:00N 43°28' E 007°14'713.4
2019-Sep-13 03:30N 43°28' E 007°23'713.4
2019-Sep-13 03:00N 43°29' E 007°32'1313.2
2019-Sep-13 02:00N 43°29' E 007°51'713.2
2019-Sep-13 01:30N 43°29' E 007°60'713.2
2019-Sep-13 01:00N 43°29' E 008°09'713.2
2019-Sep-13 00:30N 43°29' E 008°18'713.1
2019-Sep-13 00:00N 43°30' E 008°27'2140.3
2019-Sep-13 00:00N 43°30' E 008°24'917.8 080 / 101018.010.8 23.0 26.0
2019-Sep-12 23:30N 43°30' E 008°36'713.1
2019-Sep-12 23:00N 43°30' E 008°45'612.8
2019-Sep-12 22:30N 43°30' E 008°54'612.7
2019-Sep-12 22:00N 43°31' E 009°02'3167.2
2019-Sep-12 22:00N 43°30' E 009°06'4 7.9 360 / 101028.010.8 25.0
2019-Sep-12 21:30N 43°31' E 009°11'612.6
2019-Sep-12 21:00N 43°31' E 009°20'612.8
2019-Sep-12 20:30N 43°31' E 009°29'612.7
2019-Sep-12 20:00N 43°31' E 009°37'612.5
2019-Sep-12 19:30N 43°31' E 009°46'612.5
2019-Sep-12 19:00N 43°31' E 009°55'612.5
2019-Sep-12 18:30N 43°30' E 010°03'5 9.0
2019-Sep-12 18:00N 43°30' E 010°10'510.9
2019-Sep-12 17:30N 43°32' E 010°17'1 2.4
2019-Sep-12 17:00N 43°33' E 010°18'0 0.0
2019-Sep-12 16:28N 43°33' E 010°18'0 0.0
2019-Sep-12 15:58N 43°33' E 010°18'0 0.0
2019-Sep-12 15:28N 43°33' E 010°18'0 0.0
2019-Sep-12 14:59N 43°33' E 010°18'0 0.0
2019-Sep-12 14:29N 43°33' E 010°18'0 0.0
2019-Sep-12 13:59N 43°33' E 010°18'0 0.0
2019-Sep-12 13:30N 43°33' E 010°18'0 0.0
2019-Sep-12 13:00N 43°33' E 010°18'0 0.0
2019-Sep-12 12:30N 43°33' E 010°18'0 0.0
2019-Sep-12 11:58N 43°33' E 010°18'0 0.0
2019-Sep-12 11:28N 43°33' E 010°18'0 0.0
2019-Sep-12 10:58N 43°33' E 010°18'0 0.0
2019-Sep-12 10:29N 43°33' E 010°18'0 0.0
2019-Sep-12 09:59N 43°33' E 010°18'0 0.0
2019-Sep-12 09:29N 43°33' E 010°18'0 0.0
2019-Sep-12 09:00N 43°33' E 010°18'0 0.0
2019-Sep-12 08:30N 43°33' E 010°18'0 0.0
2019-Sep-12 08:00N 43°33' E 010°18'0 0.0
2019-Sep-12 07:28N 43°33' E 010°18'0 0.0
2019-Sep-12 06:58N 43°33' E 010°18'0 0.0
2019-Sep-12 06:28N 43°33' E 010°18'0 0.0
2019-Sep-12 05:59N 43°33' E 010°18'0 0.0
2019-Sep-12 05:29N 43°33' E 010°18'0 0.0
2019-Sep-12 05:00N 43°33' E 010°18'1 1.5
2019-Sep-12 04:30N 43°32' E 010°17'4 7.3
2019-Sep-12 04:00N 43°30' E 010°14'612.5
2019-Sep-12 03:30N 43°24' E 010°11'713.3
2019-Sep-12 03:00N 43°18' E 010°09'713.3
2019-Sep-12 02:30N 43°11' E 010°06'713.1
2019-Sep-12 02:00N 43°05' E 010°04'815.4
2019-Sep-12 01:30N 42°57' E 010°01'816.0
2019-Sep-12 01:00N 42°50' E 009°59'8518.0
2019-Sep-12 01:00N 42°42' E 009°54'2 3.6 010 / 141022.010.8 23.0 26.0
2019-Sep-12 00:30N 42°42' E 009°56'815.9
2019-Sep-12 00:00N 42°34' E 009°55'815.6
2019-Sep-11 23:28N 42°26' E 009°54'715.7
2019-Sep-11 23:00N 42°19' E 009°57'714.9
2019-Sep-11 22:30N 42°14' E 010°05'816.1
2019-Sep-11 22:00N 42°11' E 010°15'8650.2
2019-Sep-11 22:00N 42°06' E 010°24'2 5.0 300 / 121015.027.0 23.0
2019-Sep-11 21:30N 42°08' E 010°25'916.9
2019-Sep-11 21:00N 42°05' E 010°36'1016.8
2019-Sep-11 20:24N 42°02' E 010°49'1616.4
2019-Sep-11 19:25N 41°57' E 011°10'716.4
2019-Sep-11 18:59N 41°57' E 011°19'  
Track history (hours):
 
Tides and Currents Weather Stations Pressure Air Temp Water Temp Dewpoint Dewpoint Depression Visibility Wind Speed Wind Dir Waves Ship Positions

Norwegian Epic

Last reported at 2019-Sep-21 11:23 UTC. Time now 2019-Sep-21 11:35 UTC.
Position N 39°33' E 002°38'.

Length 329 m; draft 9.2 m.

Type: Passenger vessel. MMSI: 311018500.

Date/timePositionNaut miles runAvg speedWind from/ knotsBaromVisibWave heightAir tempDewpointWater temp
2019-Sep-21 11:23N 39°33' E 002°38'0 0.0
2019-Sep-21 10:59N 39°33' E 002°38'0 0.0
2019-Sep-21 10:30N 39°33' E 002°38'2 3.2
2019-Sep-21 10:00N 39°32' E 002°38'713.3
2019-Sep-21 09:30N 39°26' E 002°33'2713.0
2019-Sep-21 07:26N 39°53' E 002°37'1520.3
2019-Sep-21 06:41N 40°05' E 002°50'420.2
2019-Sep-21 06:30N 40°07' E 002°53'713.9
2019-Sep-21 06:00N 40°12' E 003°00'10621.1 120 / 251014.0 5.4 24.021.026.0
2019-Sep-21 01:00N 41°24' E 004°42'6320.9 140 / 231017.010.8 22.0 25.0
2019-Sep-20 22:00N 42°12' E 005°36'6419.3 090 / 271020.010.8 22.0
2019-Sep-20 18:41N 42°60' E 006°33'420.7
2019-Sep-20 18:30N 43°03' E 006°37'1020.7
2019-Sep-20 18:00N 43°11' E 006°45'1020.3
2019-Sep-20 17:30N 43°20' E 006°52'1019.2
2019-Sep-20 17:00N 43°28' E 006°58'5 9.0
2019-Sep-20 16:30N 43°32' E 007°00'0 0.6
2019-Sep-20 15:58N 43°32' E 007°01'0 0.1
2019-Sep-20 15:28N 43°32' E 007°00'0 0.0
2019-Sep-20 14:58N 43°32' E 007°00'0 0.0
2019-Sep-20 14:29N 43°32' E 007°00'0 0.0
2019-Sep-20 13:59N 43°32' E 007°00'0 0.0
2019-Sep-20 13:29N 43°32' E 007°00'0 0.0
2019-Sep-20 13:00N 43°32' E 007°00'0 0.0
2019-Sep-20 12:30N 43°32' E 007°00'0 0.0
2019-Sep-20 12:00N 43°32' E 007°00'0 0.0
2019-Sep-20 11:28N 43°32' E 007°00'0 0.0
2019-Sep-20 10:58N 43°32' E 007°00'0 0.0
2019-Sep-20 10:28N 43°32' E 007°00'0 0.0
2019-Sep-20 09:59N 43°32' E 007°00'0 0.0
2019-Sep-20 09:29N 43°32' E 007°00'0 0.0
2019-Sep-20 08:59N 43°32' E 007°00'0 0.1
2019-Sep-20 08:30N 43°32' E 007°00'0 0.0
2019-Sep-20 08:00N 43°32' E 007°00'0 0.1
2019-Sep-20 07:30N 43°32' E 007°00'0 0.1
2019-Sep-20 06:58N 43°32' E 007°01'0 0.1
2019-Sep-20 06:25N 43°32' E 007°01'0 0.0
2019-Sep-20 05:58N 43°32' E 007°01'0 0.1
2019-Sep-20 05:30N 43°32' E 007°01'1 1.0
2019-Sep-20 05:00N 43°31' E 007°01'4 8.2
2019-Sep-20 04:30N 43°28' E 007°04'815.9
2019-Sep-20 04:00N 43°28' E 007°15'612.9
2019-Sep-20 03:30N 43°28' E 007°24'713.5
2019-Sep-20 03:00N 43°29' E 007°33'713.8
2019-Sep-20 02:30N 43°29' E 007°42'713.7
2019-Sep-20 02:00N 43°29' E 007°52'713.2
2019-Sep-20 01:30N 43°29' E 008°01'612.6
2019-Sep-20 01:00N 43°29' E 008°09'6381.5
2019-Sep-20 01:00N 43°30' E 008°18'0 1.0 080 / 151020.010.8 22.0 26.0
2019-Sep-20 00:30N 43°30' E 008°18'612.6
2019-Sep-20 00:00N 43°30' E 008°27'612.7
2019-Sep-19 23:30N 43°31' E 008°35'612.5
2019-Sep-19 23:00N 43°32' E 008°44'612.5
2019-Sep-19 22:30N 43°33' E 008°52'612.0
2019-Sep-19 22:00N 43°30' E 008°60'5286.2
2019-Sep-19 22:00N 43°30' E 009°06'2 3.6 090 / 171020.010.8 25.0
2019-Sep-19 21:30N 43°31' E 009°08'612.5
2019-Sep-19 21:00N 43°31' E 009°17'612.6
2019-Sep-19 20:30N 43°31' E 009°25'612.8
2019-Sep-19 20:00N 43°31' E 009°34'612.9
2019-Sep-19 19:30N 43°31' E 009°43'612.9
2019-Sep-19 19:00N 43°31' E 009°52'612.7
2019-Sep-19 18:30N 43°31' E 010°01'612.4
2019-Sep-19 18:00N 43°30' E 010°09'611.6
2019-Sep-19 17:30N 43°32' E 010°17'1 2.5
2019-Sep-19 16:58N 43°33' E 010°18'0 0.0
2019-Sep-19 16:28N 43°33' E 010°18'0 0.0
2019-Sep-19 15:58N 43°33' E 010°18'0 0.0
2019-Sep-19 15:29N 43°33' E 010°18'0 0.0
2019-Sep-19 14:59N 43°33' E 010°18'0 0.0
2019-Sep-19 14:29N 43°33' E 010°18'0 0.0
2019-Sep-19 14:00N 43°33' E 010°18'0 0.0
2019-Sep-19 13:30N 43°33' E 010°18'0 0.0
2019-Sep-19 13:00N 43°33' E 010°18'0 0.0
2019-Sep-19 12:28N 43°33' E 010°18'0 0.0
2019-Sep-19 11:58N 43°33' E 010°18'0 0.0
2019-Sep-19 11:28N 43°33' E 010°18'0 0.0
2019-Sep-19 10:59N 43°33' E 010°18'0 0.0
2019-Sep-19 10:29N 43°33' E 010°18'0 0.0
2019-Sep-19 09:59N 43°33' E 010°18'0 0.0
2019-Sep-19 09:27N 43°33' E 010°18'0 0.0
2019-Sep-19 09:00N 43°33' E 010°18'0 0.0
2019-Sep-19 08:30N 43°33' E 010°18'0 0.0
2019-Sep-19 07:55N 43°33' E 010°18'0 0.0
2019-Sep-19 07:28N 43°33' E 010°18'0 0.0
2019-Sep-19 06:58N 43°33' E 010°18'0 0.0
2019-Sep-19 06:29N 43°33' E 010°18'0 0.0
2019-Sep-19 05:59N 43°33' E 010°18'0 0.0
2019-Sep-19 05:29N 43°33' E 010°18'0 0.0
2019-Sep-19 05:00N 43°33' E 010°18'1 1.5
2019-Sep-19 04:30N 43°33' E 010°17'4 8.3
2019-Sep-19 04:00N 43°30' E 010°14'612.7
2019-Sep-19 03:30N 43°24' E 010°11'612.7
2019-Sep-19 03:00N 43°17' E 010°09'612.9
2019-Sep-19 02:30N 43°11' E 010°06'612.9
2019-Sep-19 02:00N 43°05' E 010°04'714.6
2019-Sep-19 01:30N 42°58' E 010°02'815.6
2019-Sep-19 01:00N 42°50' E 009°60'9772.1
2019-Sep-19 01:00N 42°42' E 009°54'3 3.9 330 / 71015.010.8 23.0 26.0
2019-Sep-19 00:19N 42°40' E 009°56'716.0
2019-Sep-18 23:53N 42°33' E 009°54'1615.7
2019-Sep-18 22:54N 42°18' E 009°58'615.3
2019-Sep-18 22:30N 42°14' E 010°04'815.9
2019-Sep-18 22:00N 42°11' E 010°14'12511885.3
2019-Sep-18 22:00N 40°06' E 010°18'122220.0 180 / 121016.010.8 25.0
2019-Sep-18 21:26N 42°08' E 010°25'716.1
2019-Sep-18 21:00N 42°06' E 010°34'59 3.0
2019-Sep-18 01:33N 41°44' E 011°48'2214.2
2019-Sep-18 00:00N 41°24' E 012°00'2523.5 230 / 61016.010.8 24.0 26.0
2019-Sep-17 22:57N 41°06' E 012°22'2324.5
2019-Sep-17 22:00N 40°48' E 012°42'511.3 300 / 61016.010.8 24.0
2019-Sep-17 21:33N 40°49' E 012°48'218.5
2019-Sep-17 21:28N 40°49' E 012°50'918.4
2019-Sep-17 21:00N 40°45' E 013°00'918.2
2019-Sep-17 20:30N 40°42' E 013°12'918.3
2019-Sep-17 20:00N 40°41' E 013°24'918.4
2019-Sep-17 19:30N 40°39' E 013°36'918.5
2019-Sep-17 19:00N 40°38' E 013°48'918.3
2019-Sep-17 18:30N 40°38' E 013°60'917.5
2019-Sep-17 18:00N 40°43' E 014°10'816.0
2019-Sep-17 17:30N 40°49' E 014°17'2 3.3
2019-Sep-17 16:59N 40°50' E 014°16'0 0.0
2019-Sep-17 16:26N 40°50' E 014°16'0 0.0
2019-Sep-17 15:59N 40°50' E 014°16'0 0.0
2019-Sep-17 15:24N 40°50' E 014°16'0 0.0
2019-Sep-17 14:57N 40°50' E 014°16'0 0.0
2019-Sep-17 14:30N 40°50' E 014°16'0 0.0
2019-Sep-17 13:55N 40°50' E 014°16'0 0.0
2019-Sep-17 13:28N 40°50' E 014°16'0 0.0
2019-Sep-17 12:52N 40°50' E 014°16'0 0.0
2019-Sep-17 12:29N 40°50' E 014°16'0 0.0
2019-Sep-17 11:53N 40°50' E 014°16'0 0.0
2019-Sep-17 11:26N 40°50' E 014°16'0 0.0
2019-Sep-17 11:00N 40°50' E 014°16'0 0.0
2019-Sep-17 10:24N 40°50' E 014°16'0 0.0
2019-Sep-17 10:00N 40°50' E 014°16'0 0.0
2019-Sep-17 09:25N 40°50' E 014°16'0 0.0
2019-Sep-17 08:58N 40°50' E 014°16'0 0.0
2019-Sep-17 08:22N 40°50' E 014°16'0 0.0
2019-Sep-17 07:56N 40°50' E 014°16'0 0.0
2019-Sep-17 07:29N 40°50' E 014°16'0 0.0
2019-Sep-17 06:53N 40°50' E 014°16'0 0.0
2019-Sep-17 06:30N 40°50' E 014°16'0 0.0
2019-Sep-17 06:00N 40°50' E 014°16'0 0.0
2019-Sep-17 05:27N 40°50' E 014°16'0 0.0
2019-Sep-17 05:01N 40°50' E 014°16'0 0.3
2019-Sep-17 04:30N 40°50' E 014°16'2 4.6
2019-Sep-17 04:00N 40°48' E 014°17'612.8
2019-Sep-17 03:30N 40°44' E 014°11'612.5
2019-Sep-17 03:00N 40°40' E 014°05'612.6
2019-Sep-17 02:30N 40°38' E 013°57'713.1
2019-Sep-17 02:00N 40°39' E 013°48'713.1
2019-Sep-17 01:31N 40°39' E 013°40'713.3
2019-Sep-17 01:01N 40°39' E 013°31'10627.1
2019-Sep-17 01:00N 40°36' E 013°18'5 7.0 330 / 41020.0 5.4 24.0 26.0
2019-Sep-17 00:19N 40°41' E 013°17'1016.6
2019-Sep-16 23:43N 40°42' E 013°04'416.7
2019-Sep-16 23:30N 40°42' E 012°59'816.8
2019-Sep-16 23:01N 40°44' E 012°48'916.5
2019-Sep-16 22:28N 40°45' E 012°37'816.4
2019-Sep-16 22:01N 40°47' E 012°27'1216.6
2019-Sep-16 21:19N 40°50' E 012°12'516.5
2019-Sep-16 21:00N 40°51' E 012°06'3173.2
2019-Sep-16 21:00N 40°48' E 012°06'919.6 090 / 21019.010.8 24.0
2019-Sep-16 20:30N 40°53' E 011°55'816.2
2019-Sep-16 20:00N 40°55' E 011°45'815.6
2019-Sep-16 19:30N 40°57' E 011°35'815.5
2019-Sep-16 19:00N 40°59' E 011°25'915.3
2019-Sep-16 18:25N 41°01' E 011°13'1023.6
2019-Sep-16 18:00N 41°00' E 011°00'446.7 140 / 151018.010.8 23.019.926.0
2019-Sep-16 17:55N 41°03' E 011°02'1317.1
2019-Sep-16 17:10N 41°06' E 010°46'317.2
2019-Sep-16 16:59N 41°07' E 010°42'1416.9
2019-Sep-16 16:10N 41°11' E 010°24'316.6
2019-Sep-16 16:00N 41°11' E 010°21'816.4
2019-Sep-16 15:30N 41°13' E 010°10'816.6
2019-Sep-16 15:00N 41°15' E 009°60'1116.9
2019-Sep-16 14:22N 41°18' E 009°46'616.9
2019-Sep-16 14:00N 41°20' E 009°38'1514.7
2019-Sep-16 12:59N 41°19' E 009°18'815.1
2019-Sep-16 12:27N 41°17' E 009°07'715.9
2019-Sep-16 12:00N 41°18' E 008°58'815.9
2019-Sep-16 11:30N 41°17' E 008°47'815.9
2019-Sep-16 11:01N 41°17' E 008°37'816.4
2019-Sep-16 10:30N 41°17' E 008°26'816.7
2019-Sep-16 10:00N 41°17' E 008°15'916.6
2019-Sep-16 09:29N 41°17' E 008°03'816.4
2019-Sep-16 09:00N 41°17' E 007°53'816.2
2019-Sep-16 08:31N 41°17' E 007°42'816.1
2019-Sep-16 08:00N 41°17' E 007°31'816.0
2019-Sep-16 07:28N 41°17' E 007°20'1016.1
2019-Sep-16 06:51N 41°17' E 007°07'615.8
2019-Sep-16 06:30N 41°17' E 006°59'816.5
2019-Sep-16 06:00N 41°17' E 006°48'10631.9
2019-Sep-16 06:00N 41°12' E 006°36'5 9.9 050 / 111020.010.8 22.022.026.0
2019-Sep-16 05:30N 41°17' E 006°37'816.6
2019-Sep-16 05:00N 41°17' E 006°26'816.7
2019-Sep-16 04:31N 41°17' E 006°15'816.9
2019-Sep-16 04:00N 41°17' E 006°04'917.1
2019-Sep-16 03:30N 41°16' E 005°52'816.8
2019-Sep-16 03:00N 41°16' E 005°41'1016.9
2019-Sep-16 02:24N 41°16' E 005°28'716.6
2019-Sep-16 02:00N 41°16' E 005°19'2813.9
2019-Sep-16 00:00N 41°12' E 004°42'3420.0 320 / 71021.010.8 23.0 26.0
2019-Sep-15 22:18N 41°16' E 003°58'517.3
2019-Sep-15 22:01N 41°16' E 003°51'816.9
2019-Sep-15 21:30N 41°16' E 003°39'816.6
2019-Sep-15 21:00N 41°16' E 003°28'815.8
2019-Sep-15 20:30N 41°16' E 003°18'714.8
2019-Sep-15 20:00N 41°16' E 003°08'815.1
2019-Sep-15 19:30N 41°16' E 002°58'815.4
2019-Sep-15 19:00N 41°15' E 002°48'815.4
2019-Sep-15 18:30N 41°15' E 002°38'815.2
2019-Sep-15 18:00N 41°15' E 002°28'815.3
2019-Sep-15 17:30N 41°15' E 002°17'612.0
2019-Sep-15 17:01N 41°18' E 002°10'3 6.6
2019-Sep-15 16:31N 41°22' E 002°11'0 0.7
2019-Sep-15 15:59N 41°22' E 002°11'0 0.0
2019-Sep-15 15:29N 41°22' E 002°11'0 0.0
2019-Sep-15 14:59N 41°22' E 002°11'0 0.0
2019-Sep-15 14:30N 41°22' E 002°11'0 0.0
2019-Sep-15 14:00N 41°22' E 002°11'0 0.0
2019-Sep-15 13:30N 41°22' E 002°11'0 0.0
2019-Sep-15 12:58N 41°22' E 002°11'0 0.0
2019-Sep-15 12:28N 41°22' E 002°11'0 0.0
2019-Sep-15 11:58N 41°22' E 002°11'0 0.0
2019-Sep-15 11:29N 41°22' E 002°11'0 0.0
2019-Sep-15 10:59N 41°22' E 002°11'0 0.0
2019-Sep-15 10:29N 41°22' E 002°11'0 0.0
2019-Sep-15 10:00N 41°22' E 002°11'0 0.0
2019-Sep-15 09:30N 41°22' E 002°11'0 0.0
2019-Sep-15 09:00N 41°22' E 002°11'0 0.0
2019-Sep-15 08:28N 41°22' E 002°11'0 0.0
2019-Sep-15 07:58N 41°22' E 002°11'0 0.0
2019-Sep-15 07:28N 41°22' E 002°11'0 0.0
2019-Sep-15 06:59N 41°22' E 002°11'0 0.0
2019-Sep-15 06:29N 41°22' E 002°11'0 0.0
2019-Sep-15 05:59N 41°22' E 002°11'0 0.0
2019-Sep-15 05:29N 41°22' E 002°11'0 0.0
2019-Sep-15 05:00N 41°22' E 002°11'0 0.0
2019-Sep-15 04:30N 41°22' E 002°11'0 0.0
2019-Sep-15 04:00N 41°22' E 002°11'0 0.0
2019-Sep-15 03:28N 41°22' E 002°11'0 0.0
2019-Sep-15 02:58N 41°22' E 002°11'1 1.6
2019-Sep-15 02:30N 41°21' E 002°10'3 6.2
2019-Sep-15 02:00N 41°18' E 002°11'612.9
2019-Sep-15 01:31N 41°12' E 002°11'815.9
2019-Sep-15 01:00N 41°04' E 002°11'815.9
2019-Sep-15 00:30N 40°56' E 002°12'917.4
2019-Sep-15 00:00N 40°47' E 002°12'1339.0
2019-Sep-15 00:00N 40°48' E 002°12'1020.9 050 / 351021.010.8 23.0 26.0
2019-Sep-14 23:30N 40°38' E 002°12'1019.1
2019-Sep-14 23:00N 40°28' E 002°12'918.7
2019-Sep-14 22:31N 40°19' E 002°12'816.5
2019-Sep-14 22:01N 40°11' E 002°12'816.2
2019-Sep-14 21:30N 40°03' E 002°12'3 5.2
2019-Sep-14 21:00N 40°00' E 002°12'1037.7 080 / 301020.010.8 24.0
2019-Sep-14 20:43N 39°50' E 002°13'2115.8
2019-Sep-14 19:24N 39°30' E 002°22'716.9
2019-Sep-14 19:00N 39°26' E 002°29'815.2
2019-Sep-14 18:30N 39°30' E 002°37'3 6.8
2019-Sep-14 18:00N 39°33' E 002°38'0 0.0
2019-Sep-14 17:28N 39°33' E 002°38'0 0.0
2019-Sep-14 16:58N 39°33' E 002°38'0 0.0
2019-Sep-14 16:28N 39°33' E 002°38'0 0.0
2019-Sep-14 15:59N 39°33' E 002°38'0 0.0
2019-Sep-14 15:29N 39°33' E 002°38'0 0.0
2019-Sep-14 14:53N 39°33' E 002°38'0 0.0
2019-Sep-14 14:30N 39°33' E 002°38'0 0.0
2019-Sep-14 14:00N 39°33' E 002°38'0 0.0
2019-Sep-14 13:30N 39°33' E 002°38'0 0.0
2019-Sep-14 12:58N 39°33' E 002°38'0 0.0
2019-Sep-14 12:28N 39°33' E 002°38'0 0.0
2019-Sep-14 11:58N 39°33' E 002°38'0 0.0
2019-Sep-14 11:23N 39°33' E 002°38'0 0.0
2019-Sep-14 10:56N 39°33' E 002°38'0 0.0
2019-Sep-14 10:30N 39°33' E 002°38'1 2.9
2019-Sep-14 10:00N 39°32' E 002°38'611.5
2019-Sep-14 09:30N 39°27' E 002°34'815.8
2019-Sep-14 09:00N 39°28' E 002°24'2615.4
2019-Sep-14 07:19N 39°52' E 002°35'1621.1
2019-Sep-14 06:34N 40°04' E 002°49'120.9
2019-Sep-14 06:30N 40°05' E 002°50'1019.8
2019-Sep-14 06:00N 40°12' E 003°00'1521.7 090 / 201024.0 5.4 23.018.224.0
2019-Sep-14 05:18N 40°23' E 003°13'621.4
2019-Sep-14 05:01N 40°28' E 003°19'1121.7
2019-Sep-14 04:31N 40°36' E 003°29'1121.9
2019-Sep-14 04:01N 40°43' E 003°39'1821.9
2019-Sep-14 03:10N 40°56' E 003°56'2821.7
2019-Sep-14 01:53N 41°17' E 004°21'820.6
2019-Sep-14 01:30N 41°22' E 004°29'1020.7
2019-Sep-14 01:00N 41°30' E 004°37'1021.0
2019-Sep-14 00:31N 41°39' E 004°45'1121.6
2019-Sep-14 00:00N 41°48' E 004°53'189.9
2019-Sep-14 00:00N 41°48' E 004°54'1020.1 050 / 141027.010.8 22.0 26.0
2019-Sep-13 23:29N 41°53' E 005°06'1121.0
2019-Sep-13 22:57N 41°60' E 005°18'2626.5
2019-Sep-13 22:00N 42°18' E 005°42'5619.7 050 / 101026.010.8 23.0
2019-Sep-13 19:10N 42°59' E 006°33'321.4
2019-Sep-13 19:01N 43°01' E 006°36'1121.2
2019-Sep-13 18:31N 43°10' E 006°44'1020.8
2019-Sep-13 18:01N 43°20' E 006°50'917.6
2019-Sep-13 17:31N 43°27' E 006°57'611.4
2019-Sep-13 17:00N 43°32' E 007°00'0 0.2
2019-Sep-13 16:30N 43°32' E 007°01'0 0.0
2019-Sep-13 16:00N 43°32' E 007°01'0 0.2
2019-Sep-13 15:28N 43°32' E 007°00'0 0.0
2019-Sep-13 14:58N 43°32' E 007°00'0 0.0
2019-Sep-13 14:25N 43°32' E 007°00'0 0.0
2019-Sep-13 13:59N 43°32' E 007°00'0 0.0
2019-Sep-13 13:29N 43°32' E 007°00'0 0.0
2019-Sep-13 12:59N 43°32' E 007°00'0 0.0
2019-Sep-13 12:30N 43°32' E 007°00'0 0.0
2019-Sep-13 12:00N 43°32' E 007°00'0 0.0
2019-Sep-13 11:30N 43°32' E 007°00'0 0.0
2019-Sep-13 10:58N 43°32' E 007°00'0 0.0
2019-Sep-13 10:25N 43°32' E 007°00'0 0.0
2019-Sep-13 09:58N 43°32' E 007°00'0 0.0
2019-Sep-13 09:29N 43°32' E 007°00'0 0.1
2019-Sep-13 08:59N 43°32' E 007°01'0 0.1
2019-Sep-13 08:29N 43°32' E 007°01'0 0.0
2019-Sep-13 08:00N 43°32' E 007°01'0 0.0
2019-Sep-13 07:30N 43°32' E 007°00'0 0.0
2019-Sep-13 07:00N 43°32' E 007°01'0 0.0
2019-Sep-13 06:31N 43°32' E 007°01'0 0.0
2019-Sep-13 05:58N 43°32' E 007°01'0 0.1
2019-Sep-13 05:28N 43°32' E 007°00'0 1.0
2019-Sep-13 05:00N 43°32' E 007°01'4 7.6
2019-Sep-13 04:31N 43°28' E 007°03'815.7
2019-Sep-13 04:00N 43°28' E 007°14'713.4
2019-Sep-13 03:30N 43°28' E 007°23'713.4
2019-Sep-13 03:00N 43°29' E 007°32'1313.2
2019-Sep-13 02:00N 43°29' E 007°51'713.2
2019-Sep-13 01:30N 43°29' E 007°60'713.2
2019-Sep-13 01:00N 43°29' E 008°09'713.2
2019-Sep-13 00:30N 43°29' E 008°18'713.1
2019-Sep-13 00:00N 43°30' E 008°27'2140.3
2019-Sep-13 00:00N 43°30' E 008°24'917.8 080 / 101018.010.8 23.0 26.0
2019-Sep-12 23:30N 43°30' E 008°36'713.1
2019-Sep-12 23:00N 43°30' E 008°45'612.8
2019-Sep-12 22:30N 43°30' E 008°54'612.7
2019-Sep-12 22:00N 43°31' E 009°02'3167.2
2019-Sep-12 22:00N 43°30' E 009°06'4 7.9 360 / 101028.010.8 25.0
2019-Sep-12 21:30N 43°31' E 009°11'612.6
2019-Sep-12 21:00N 43°31' E 009°20'612.8
2019-Sep-12 20:30N 43°31' E 009°29'612.7
2019-Sep-12 20:00N 43°31' E 009°37'612.5
2019-Sep-12 19:30N 43°31' E 009°46'612.5
2019-Sep-12 19:00N 43°31' E 009°55'612.5
2019-Sep-12 18:30N 43°30' E 010°03'5 9.0
2019-Sep-12 18:00N 43°30' E 010°10'510.9
2019-Sep-12 17:30N 43°32' E 010°17'1 2.4
2019-Sep-12 17:00N 43°33' E 010°18'0 0.0
2019-Sep-12 16:28N 43°33' E 010°18'0 0.0
2019-Sep-12 15:58N 43°33' E 010°18'0 0.0
2019-Sep-12 15:28N 43°33' E 010°18'0 0.0
2019-Sep-12 14:59N 43°33' E 010°18'0 0.0
2019-Sep-12 14:29N 43°33' E 010°18'0 0.0
2019-Sep-12 13:59N 43°33' E 010°18'0 0.0
2019-Sep-12 13:30N 43°33' E 010°18'0 0.0
2019-Sep-12 13:00N 43°33' E 010°18'0 0.0
2019-Sep-12 12:30N 43°33' E 010°18'0 0.0
2019-Sep-12 11:58N 43°33' E 010°18'0 0.0
2019-Sep-12 11:28N 43°33' E 010°18'0 0.0
2019-Sep-12 10:58N 43°33' E 010°18'0 0.0
2019-Sep-12 10:29N 43°33' E 010°18'0 0.0
2019-Sep-12 09:59N 43°33' E 010°18'0 0.0
2019-Sep-12 09:29N 43°33' E 010°18'0 0.0
2019-Sep-12 09:00N 43°33' E 010°18'0 0.0
2019-Sep-12 08:30N 43°33' E 010°18'0 0.0
2019-Sep-12 08:00N 43°33' E 010°18'0 0.0
2019-Sep-12 07:28N 43°33' E 010°18'0 0.0
2019-Sep-12 06:58N 43°33' E 010°18'0 0.0
2019-Sep-12 06:28N 43°33' E 010°18'0 0.0
2019-Sep-12 05:59N 43°33' E 010°18'0 0.0
2019-Sep-12 05:29N 43°33' E 010°18'0 0.0
2019-Sep-12 05:00N 43°33' E 010°18'1 1.5
2019-Sep-12 04:30N 43°32' E 010°17'4 7.3
2019-Sep-12 04:00N 43°30' E 010°14'612.5
2019-Sep-12 03:30N 43°24' E 010°11'713.3
2019-Sep-12 03:00N 43°18' E 010°09'713.3
2019-Sep-12 02:30N 43°11' E 010°06'713.1
2019-Sep-12 02:00N 43°05' E 010°04'815.4
2019-Sep-12 01:30N 42°57' E 010°01'816.0
2019-Sep-12 01:00N 42°50' E 009°59'8518.0
2019-Sep-12 01:00N 42°42' E 009°54'2 3.6 010 / 141022.010.8 23.0 26.0
2019-Sep-12 00:30N 42°42' E 009°56'815.9
2019-Sep-12 00:00N 42°34' E 009°55'815.6
2019-Sep-11 23:28N 42°26' E 009°54'715.7
2019-Sep-11 23:00N 42°19' E 009°57'714.9
2019-Sep-11 22:30N 42°14' E 010°05'816.1
2019-Sep-11 22:00N 42°11' E 010°15'8650.2
2019-Sep-11 22:00N 42°06' E 010°24'2 5.0 300 / 121015.027.0 23.0
2019-Sep-11 21:30N 42°08' E 010°25'916.9
2019-Sep-11 21:00N 42°05' E 010°36'1016.8
2019-Sep-11 20:24N 42°02' E 010°49'1616.4
2019-Sep-11 19:25N 41°57' E 011°10'716.4
2019-Sep-11 18:59N 41°57' E 011°19'  

Dump ship's entire track history